createdAt,value
2018-11-25T00:02:04.806Z,80.74
2018-11-25T00:04:32.239Z,81.19
2018-11-25T00:06:59.658Z,80.80
2018-11-25T00:09:27.079Z,80.91
2018-11-25T00:11:54.506Z,81.22
2018-11-25T00:14:21.939Z,80.74
2018-11-25T00:16:49.374Z,80.51
2018-11-25T00:19:16.801Z,79.90
2018-11-25T00:21:44.227Z,79.99
2018-11-25T00:24:11.663Z,80.14
2018-11-25T00:26:39.077Z,80.00
2018-11-25T00:29:06.510Z,79.67
2018-11-25T00:31:33.947Z,79.94
2018-11-25T00:34:01.378Z,80.28
2018-11-25T00:36:28.799Z,80.43
2018-11-25T00:38:56.225Z,80.44
2018-11-25T00:41:23.647Z,80.42
2018-11-25T00:43:51.078Z,79.73
2018-11-25T00:46:18.506Z,80.53
2018-11-25T00:48:45.944Z,80.72
2018-11-25T00:51:13.363Z,80.96
2018-11-25T00:53:40.802Z,80.64
2018-11-25T00:56:08.214Z,81.02
2018-11-25T00:58:35.652Z,81.67
2018-11-25T01:01:03.075Z,81.19
2018-11-25T01:03:30.501Z,81.74
2018-11-25T01:05:57.950Z,81.24
2018-11-25T01:08:25.395Z,82.21
2018-11-25T01:10:52.819Z,81.57
2018-11-25T01:13:20.372Z,82.10
2018-11-25T01:15:47.797Z,81.50
2018-11-25T01:18:15.250Z,81.02
2018-11-25T01:20:42.685Z,80.94
2018-11-25T01:23:10.117Z,81.19
2018-11-25T01:25:37.549Z,80.85
2018-11-25T01:28:04.973Z,80.74
2018-11-25T01:30:32.486Z,81.11
2018-11-25T01:32:59.920Z,80.41
2018-11-25T01:35:27.364Z,80.24
2018-11-25T01:37:54.798Z,80.66
2018-11-25T01:40:22.218Z,80.27
2018-11-25T01:42:49.649Z,80.63
2018-11-25T01:45:17.112Z,80.75
2018-11-25T01:47:44.610Z,80.58
2018-11-25T01:50:12.032Z,80.64
2018-11-25T01:52:39.447Z,80.81
2018-11-25T01:55:06.871Z,80.14
2018-11-25T01:57:34.302Z,80.86
2018-11-25T02:00:01.738Z,80.77
2018-11-25T02:02:29.155Z,81.37
2018-11-25T02:04:56.570Z,81.50
2018-11-25T02:07:23.982Z,81.92
2018-11-25T02:09:51.403Z,82.11
2018-11-25T02:12:18.825Z,81.90
2018-11-25T02:14:46.247Z,81.55
2018-11-25T02:17:13.678Z,81.96
2018-11-25T02:19:41.097Z,81.83
2018-11-25T02:22:08.526Z,81.84
2018-11-25T02:24:35.938Z,82.04
2018-11-25T02:27:03.357Z,82.14
2018-11-25T02:29:30.781Z,81.91
2018-11-25T02:31:58.207Z,82.06
2018-11-25T02:34:25.636Z,82.36
2018-11-25T02:36:53.062Z,82.50
2018-11-25T02:39:20.485Z,82.22
2018-11-25T02:41:47.917Z,82.72
2018-11-25T02:44:15.333Z,82.85
2018-11-25T02:46:42.760Z,82.92
2018-11-25T02:49:10.178Z,82.54
2018-11-25T02:51:37.598Z,81.95
2018-11-25T02:54:05.024Z,81.87
2018-11-25T02:56:32.448Z,81.89
2018-11-25T02:58:59.868Z,82.20
2018-11-25T03:01:27.292Z,81.46
2018-11-25T03:03:54.712Z,82.35
2018-11-25T03:06:22.129Z,82.11
2018-11-25T03:08:49.564Z,82.54
2018-11-25T03:11:16.992Z,82.58
2018-11-25T03:13:44.422Z,82.31
2018-11-25T03:16:11.837Z,82.29
2018-11-25T03:18:39.267Z,82.80
2018-11-25T03:21:06.794Z,82.58
2018-11-25T03:23:34.211Z,82.73
2018-11-25T03:26:01.645Z,82.53
2018-11-25T03:28:29.081Z,82.24
2018-11-25T03:30:56.511Z,81.84
2018-11-25T03:33:24.039Z,82.99
2018-11-25T03:35:51.445Z,82.41
2018-11-25T03:38:18.924Z,82.90
2018-11-25T03:40:46.354Z,82.27
2018-11-25T03:43:13.774Z,82.49
2018-11-25T03:45:41.188Z,82.19
2018-11-25T03:48:08.601Z,81.93
2018-11-25T03:50:36.038Z,82.32
2018-11-25T03:53:03.454Z,81.55
2018-11-25T03:55:30.887Z,81.69
2018-11-25T03:57:58.314Z,81.86
2018-11-25T04:00:25.735Z,82.18
2018-11-25T04:02:53.163Z,82.60
2018-11-25T04:05:20.591Z,82.61
2018-11-25T04:07:48.015Z,82.75
2018-11-25T04:10:15.435Z,82.50
2018-11-25T04:12:42.863Z,82.34
2018-11-25T04:15:10.289Z,82.18
2018-11-25T04:17:37.715Z,82.31
2018-11-25T04:20:05.142Z,82.79
2018-11-25T04:22:32.573Z,82.72
2018-11-25T04:24:59.987Z,82.23
2018-11-25T04:27:27.414Z,82.51
2018-11-25T04:29:54.838Z,82.87
2018-11-25T04:32:22.260Z,82.66
2018-11-25T04:34:49.686Z,82.57
2018-11-25T04:37:17.099Z,82.11
2018-11-25T04:39:44.527Z,82.02
2018-11-25T04:42:11.952Z,82.35
2018-11-25T04:44:39.370Z,82.03
2018-11-25T04:47:06.799Z,82.20
2018-11-25T04:49:34.228Z,82.08
2018-11-25T04:52:01.644Z,82.57
2018-11-25T04:54:29.070Z,82.60
2018-11-25T04:56:56.499Z,82.59
2018-11-25T04:59:23.919Z,82.81
2018-11-25T05:01:51.342Z,82.39
2018-11-25T05:04:18.763Z,82.85
2018-11-25T05:06:46.188Z,82.89
2018-11-25T05:09:13.601Z,82.83
2018-11-25T05:11:41.041Z,82.80
2018-11-25T05:14:08.461Z,82.16
2018-11-25T05:16:35.892Z,82.01
2018-11-25T05:19:03.314Z,81.83
2018-11-25T05:21:30.752Z,81.48
2018-11-25T05:23:58.161Z,81.16
2018-11-25T05:26:25.596Z,82.08
2018-11-25T05:28:53.009Z,81.42
2018-11-25T05:31:20.447Z,81.53
2018-11-25T05:33:47.862Z,81.90
2018-11-25T05:36:15.286Z,81.37
2018-11-25T05:38:42.706Z,81.50
2018-11-25T05:41:10.136Z,81.81
2018-11-25T05:43:37.549Z,82.00
2018-11-25T05:46:04.979Z,81.95
2018-11-25T05:48:32.396Z,81.77
2018-11-25T05:50:59.826Z,82.00
2018-11-25T05:53:27.257Z,82.26
2018-11-25T05:55:54.677Z,81.85
2018-11-25T05:58:22.114Z,81.81
2018-11-25T06:00:49.547Z,81.36
2018-11-25T06:03:16.963Z,81.62
2018-11-25T06:05:44.382Z,81.96
2018-11-25T06:08:11.799Z,81.59
2018-11-25T06:10:39.226Z,81.85
2018-11-25T06:13:06.655Z,81.83
2018-11-25T06:15:34.087Z,81.03
2018-11-25T06:18:01.501Z,81.48
2018-11-25T06:20:28.934Z,81.21
2018-11-25T06:22:56.347Z,80.58
2018-11-25T06:25:23.779Z,80.93
2018-11-25T06:27:51.205Z,81.58
2018-11-25T06:30:18.640Z,81.37
2018-11-25T06:32:46.065Z,81.12
2018-11-25T06:35:13.523Z,81.25
2018-11-25T06:37:40.958Z,81.50
2018-11-25T06:40:08.371Z,80.74
2018-11-25T06:42:35.818Z,81.47
2018-11-25T06:45:03.226Z,80.90
2018-11-25T06:47:30.649Z,80.99
2018-11-25T06:49:58.071Z,81.34
2018-11-25T06:52:25.505Z,81.59
2018-11-25T06:54:52.927Z,81.34
2018-11-25T06:57:20.355Z,81.18
2018-11-25T06:59:47.766Z,81.45
2018-11-25T07:02:15.183Z,81.14
2018-11-25T07:04:42.605Z,81.57
2018-11-25T07:07:10.023Z,81.19
2018-11-25T07:09:37.438Z,81.09
2018-11-25T07:12:05.266Z,81.60
2018-11-25T07:14:32.696Z,81.23
2018-11-25T07:17:00.115Z,81.62
2018-11-25T07:19:27.550Z,81.34
2018-11-25T07:21:54.980Z,81.30
2018-11-25T07:24:22.389Z,81.63
2018-11-25T07:26:49.815Z,81.47
2018-11-25T07:29:17.286Z,82.28
2018-11-25T07:31:44.706Z,82.28
2018-11-25T07:34:12.138Z,81.98
2018-11-25T07:36:39.576Z,81.73
2018-11-25T07:39:06.998Z,82.00
2018-11-25T07:41:34.431Z,81.55
2018-11-25T07:44:01.855Z,81.18
2018-11-25T07:46:29.304Z,81.44
2018-11-25T07:48:56.727Z,81.87
2018-11-25T07:51:24.163Z,81.57
2018-11-25T07:53:51.592Z,81.77
2018-11-25T07:56:19.019Z,81.92
2018-11-25T07:58:46.434Z,81.90
2018-11-25T08:01:13.859Z,81.99
2018-11-25T08:03:41.289Z,81.14
2018-11-25T08:06:08.711Z,81.61
2018-11-25T08:08:36.138Z,81.17
2018-11-25T08:11:03.575Z,81.02
2018-11-25T08:13:30.993Z,80.58
2018-11-25T08:15:58.409Z,80.62
2018-11-25T08:18:25.842Z,80.31
2018-11-25T08:20:53.519Z,80.71
2018-11-25T08:23:20.979Z,80.68
2018-11-25T08:25:48.745Z,80.77
2018-11-25T08:28:16.176Z,80.03
2018-11-25T08:30:43.591Z,79.80
2018-11-25T08:33:11.014Z,80.00
2018-11-25T08:35:38.431Z,79.62
2018-11-25T08:38:05.867Z,79.13
2018-11-25T08:40:33.276Z,79.21
2018-11-25T08:43:00.694Z,79.10
2018-11-25T08:45:28.119Z,78.68
2018-11-25T08:47:55.632Z,78.62
2018-11-25T08:50:23.040Z,78.67
2018-11-25T08:52:50.496Z,77.69
2018-11-25T08:55:17.913Z,77.33
2018-11-25T08:57:46.280Z,76.87
2018-11-25T09:00:13.701Z,76.55
2018-11-25T09:02:41.122Z,76.88
2018-11-25T09:05:08.535Z,74.86
2018-11-25T09:07:35.970Z,74.28
2018-11-25T09:10:03.388Z,74.08
2018-11-25T09:12:30.834Z,74.05
2018-11-25T09:14:58.250Z,73.37
2018-11-25T09:17:25.754Z,72.64
2018-11-25T09:19:53.220Z,72.20
2018-11-25T09:22:20.650Z,71.60
2018-11-25T09:24:48.091Z,72.14
2018-11-25T09:27:15.518Z,72.89
2018-11-25T09:29:42.955Z,72.52
2018-11-25T09:32:10.376Z,74.05
2018-11-25T09:34:37.857Z,73.81
2018-11-25T09:37:05.282Z,74.25
2018-11-25T09:39:32.710Z,74.28
2018-11-25T09:42:00.124Z,74.00
2018-11-25T09:44:27.554Z,73.91
2018-11-25T09:46:54.986Z,74.02
2018-11-25T09:49:22.513Z,74.24
2018-11-25T09:51:49.962Z,73.67
2018-11-25T09:54:17.375Z,74.26
2018-11-25T09:56:44.814Z,73.96
2018-11-25T09:59:12.339Z,74.13
2018-11-25T10:01:39.795Z,73.64
2018-11-25T10:04:07.246Z,74.24
2018-11-25T10:06:34.654Z,73.60
2018-11-25T10:09:02.088Z,73.77
2018-11-25T10:11:30.137Z,73.97
2018-11-25T10:13:56.973Z,73.56
2018-11-25T10:16:24.393Z,74.25
2018-11-25T10:18:51.822Z,72.98
2018-11-25T10:21:19.337Z,73.36
2018-11-25T10:23:46.738Z,73.28
2018-11-25T10:26:14.174Z,72.70
2018-11-25T10:28:41.691Z,72.64
2018-11-25T10:31:09.106Z,72.39
2018-11-25T10:33:36.533Z,71.98
2018-11-25T10:36:04.625Z,72.19
2018-11-25T10:38:31.478Z,71.85
2018-11-25T10:40:58.900Z,72.08
2018-11-25T10:43:26.330Z,72.20
2018-11-25T10:45:53.808Z,71.40
2018-11-25T10:48:21.314Z,71.76
2018-11-25T10:50:51.266Z,71.39
2018-11-25T10:53:16.162Z,71.73
2018-11-25T10:55:43.578Z,71.37
2018-11-25T10:58:13.028Z,71.20
2018-11-25T11:00:45.930Z,71.58
2018-11-25T11:03:18.842Z,71.89
2018-11-25T11:05:51.695Z,71.59
2018-11-25T11:08:19.131Z,72.18
2018-11-25T11:10:46.553Z,72.49
2018-11-25T11:13:14.086Z,71.79
2018-11-25T11:15:41.539Z,72.33
2018-11-25T11:18:08.986Z,72.38
2018-11-25T11:20:36.399Z,71.87
2018-11-25T11:23:03.818Z,72.43
2018-11-25T11:25:31.268Z,72.14
2018-11-25T11:27:58.726Z,72.27
2018-11-25T11:30:26.181Z,71.73
2018-11-25T11:32:53.615Z,71.58
2018-11-25T11:35:21.098Z,71.12
2018-11-25T11:37:48.536Z,71.54
2018-11-25T11:40:15.951Z,71.18
2018-11-25T11:42:43.574Z,71.05
2018-11-25T11:45:10.996Z,71.06
2018-11-25T11:47:38.485Z,71.45
2018-11-25T11:50:05.910Z,71.85
2018-11-25T11:52:33.407Z,72.26
2018-11-25T11:55:00.853Z,72.12
2018-11-25T11:57:28.321Z,72.37
2018-11-25T11:59:55.783Z,73.01
2018-11-25T12:02:23.202Z,72.97
2018-11-25T12:04:50.693Z,73.21
2018-11-25T12:07:18.114Z,72.93
2018-11-25T12:09:45.611Z,73.80
2018-11-25T12:12:13.023Z,73.27
2018-11-25T12:14:40.443Z,72.98
2018-11-25T12:17:07.890Z,74.00
2018-11-25T12:19:35.334Z,73.44
2018-11-25T12:22:02.769Z,72.83
2018-11-25T12:24:30.228Z,72.41
2018-11-25T12:26:57.833Z,72.92
2018-11-25T12:29:25.271Z,72.70
2018-11-25T12:31:52.706Z,72.99
2018-11-25T12:34:20.187Z,72.70
2018-11-25T12:36:47.614Z,71.97
2018-11-25T12:39:15.094Z,71.84
2018-11-25T12:41:42.512Z,71.60
2018-11-25T12:44:10.017Z,71.15
2018-11-25T12:46:37.474Z,70.56
2018-11-25T12:49:04.938Z,70.04
2018-11-25T12:51:32.386Z,70.87
2018-11-25T12:53:59.827Z,70.69
2018-11-25T12:56:27.730Z,70.14
2018-11-25T12:58:55.169Z,70.10
2018-11-25T13:01:22.734Z,70.01
2018-11-25T13:03:50.178Z,70.48
2018-11-25T13:06:17.652Z,70.39
2018-11-25T13:08:45.091Z,69.91
2018-11-25T13:11:12.535Z,70.16
2018-11-25T13:13:39.954Z,70.44
2018-11-25T13:16:07.368Z,70.99
2018-11-25T13:18:35.813Z,71.12
2018-11-25T13:21:02.260Z,70.67
2018-11-25T13:23:29.690Z,71.65
2018-11-25T13:25:57.118Z,70.58
2018-11-25T13:28:24.538Z,70.81
2018-11-25T13:30:51.972Z,69.98
2018-11-25T13:33:19.389Z,70.07
2018-11-25T13:35:46.831Z,70.25
2018-11-25T13:38:14.305Z,70.29
2018-11-25T13:40:41.726Z,70.46
2018-11-25T13:43:09.317Z,70.71
2018-11-25T13:45:36.766Z,70.33
2018-11-25T13:48:04.218Z,70.18
2018-11-25T13:50:31.647Z,70.06
2018-11-25T13:52:59.139Z,70.07
2018-11-25T13:55:26.567Z,69.85
2018-11-25T13:57:53.988Z,70.06
2018-11-25T14:00:21.414Z,70.43
2018-11-25T14:02:48.836Z,70.22
2018-11-25T14:05:16.267Z,70.55
2018-11-25T14:07:44.437Z,69.58
2018-11-25T14:10:11.960Z,69.59
2018-11-25T14:12:39.395Z,69.66
2018-11-25T14:15:06.813Z,70.07
2018-11-25T14:17:34.242Z,69.53
2018-11-25T14:20:01.662Z,70.18
2018-11-25T14:22:29.456Z,69.96
2018-11-25T14:24:56.875Z,70.47
2018-11-25T14:27:24.362Z,70.67
2018-11-25T14:29:51.819Z,70.86
2018-11-25T14:32:19.239Z,70.79
2018-11-25T14:34:46.707Z,71.13
2018-11-25T14:37:14.134Z,71.27
2018-11-25T14:39:41.563Z,71.40
2018-11-25T14:42:08.994Z,71.30
2018-11-25T14:44:36.406Z,71.38
2018-11-25T14:47:03.834Z,71.60
2018-11-25T14:49:31.376Z,71.62
2018-11-25T14:51:58.815Z,72.09
2018-11-25T14:54:26.303Z,72.17
2018-11-25T14:56:53.731Z,72.59
2018-11-25T14:59:21.163Z,72.46
2018-11-25T15:01:48.596Z,72.28
2018-11-25T15:04:16.115Z,71.93
2018-11-25T15:06:44.121Z,72.54
2018-11-25T15:09:11.541Z,72.47
2018-11-25T15:11:38.972Z,72.62
2018-11-25T15:14:06.399Z,72.92
2018-11-25T15:16:33.837Z,73.18
2018-11-25T15:19:01.274Z,73.33
2018-11-25T15:21:28.794Z,73.94
2018-11-25T15:23:56.290Z,73.90
2018-11-25T15:26:23.747Z,73.89
2018-11-25T15:28:51.175Z,73.98
2018-11-25T15:31:18.593Z,74.34
2018-11-25T15:33:46.012Z,74.19
2018-11-25T15:36:13.441Z,74.23
2018-11-25T15:38:40.872Z,74.00
2018-11-25T15:41:08.398Z,73.96
2018-11-25T15:43:35.810Z,74.45
2018-11-25T15:46:03.242Z,74.43
2018-11-25T15:48:30.660Z,74.93
2018-11-25T15:50:58.113Z,75.00
2018-11-25T15:53:25.574Z,74.78
2018-11-25T15:55:53.006Z,74.93
2018-11-25T15:58:21.148Z,75.24
2018-11-25T16:00:48.682Z,76.05
2018-11-25T16:03:16.117Z,75.62
2018-11-25T16:05:43.592Z,75.58
2018-11-25T16:08:11.085Z,75.91
2018-11-25T16:10:38.517Z,75.83
2018-11-25T16:13:05.915Z,76.14
2018-11-25T16:15:33.349Z,75.91
2018-11-25T16:18:00.785Z,76.06
2018-11-25T16:20:28.205Z,75.87
2018-11-25T16:22:55.625Z,76.31
2018-11-25T16:25:23.058Z,76.73
2018-11-25T16:27:50.477Z,76.53
2018-11-25T16:30:17.899Z,76.81
2018-11-25T16:32:45.782Z,75.95
2018-11-25T16:35:13.223Z,76.32
2018-11-25T16:37:40.743Z,76.01
2018-11-25T16:40:08.171Z,77.63
2018-11-25T16:42:35.686Z,77.66
2018-11-25T16:45:03.110Z,78.40
2018-11-25T16:47:30.579Z,78.61
2018-11-25T16:49:58.036Z,79.67
2018-11-25T16:52:25.586Z,80.12
2018-11-25T16:54:53.024Z,80.25
2018-11-25T16:57:20.456Z,80.75
2018-11-25T16:59:47.885Z,81.13
2018-11-25T17:02:15.298Z,81.19
2018-11-25T17:04:42.779Z,81.34
2018-11-25T17:07:10.233Z,81.82
2018-11-25T17:09:37.654Z,81.87
2018-11-25T17:12:05.073Z,81.90
2018-11-25T17:14:33.823Z,82.09
2018-11-25T17:17:00.024Z,82.75
2018-11-25T17:19:27.514Z,83.21
2018-11-25T17:21:54.951Z,82.88
2018-11-25T17:24:22.380Z,83.48
2018-11-25T17:26:49.798Z,82.55
2018-11-25T17:29:17.359Z,83.11
2018-11-25T17:31:44.782Z,83.31
2018-11-25T17:34:12.274Z,84.43
2018-11-25T17:36:39.723Z,84.71
2018-11-25T17:39:07.271Z,84.24
2018-11-25T17:41:34.729Z,83.61
2018-11-25T17:44:02.159Z,83.40
2018-11-25T17:46:29.659Z,83.64
2018-11-25T17:48:57.077Z,83.32
2018-11-25T17:51:24.570Z,83.77
2018-11-25T17:53:51.990Z,84.14
2018-11-25T17:56:19.462Z,83.40
2018-11-25T17:58:46.895Z,83.25
2018-11-25T18:01:14.390Z,83.90
2018-11-25T18:03:41.854Z,83.93
2018-11-25T18:06:09.277Z,83.68
2018-11-25T18:08:36.738Z,83.55
2018-11-25T18:11:04.161Z,84.15
2018-11-25T18:13:32.049Z,84.35
2018-11-25T18:15:59.499Z,84.63
2018-11-25T18:18:27.014Z,84.21
2018-11-25T18:20:54.467Z,84.03
2018-11-25T18:23:21.906Z,83.39
2018-11-25T18:25:49.334Z,83.88
2018-11-25T18:28:16.767Z,83.40
2018-11-25T18:30:44.176Z,83.05
2018-11-25T18:33:11.658Z,82.00
2018-11-25T18:35:39.084Z,82.08
2018-11-25T18:38:06.510Z,82.96
2018-11-25T18:40:33.931Z,82.83
2018-11-25T18:43:01.370Z,83.25
2018-11-25T18:45:28.834Z,83.62
2018-11-25T18:47:56.243Z,82.99
2018-11-25T18:50:23.665Z,82.95
2018-11-25T18:52:51.088Z,83.05
2018-11-25T18:55:18.509Z,82.61
2018-11-25T18:57:46.035Z,83.14
2018-11-25T19:00:13.457Z,83.39
2018-11-25T19:02:41.426Z,83.64
2018-11-25T19:05:08.846Z,83.35
2018-11-25T19:07:36.296Z,84.05
2018-11-25T19:10:03.723Z,83.44
2018-11-25T19:12:31.153Z,82.85
2018-11-25T19:14:58.569Z,82.34
2018-11-25T19:17:26.047Z,82.96
2018-11-25T19:19:53.555Z,82.54
2018-11-25T19:22:20.996Z,83.06
2018-11-25T19:24:48.415Z,83.00
2018-11-25T19:27:15.850Z,83.08
2018-11-25T19:29:43.283Z,83.08
2018-11-25T19:32:10.710Z,83.35
2018-11-25T19:34:38.135Z,83.16
2018-11-25T19:37:05.567Z,83.01
2018-11-25T19:39:32.991Z,83.80
2018-11-25T19:42:00.426Z,83.53
2018-11-25T19:44:27.850Z,82.92
2018-11-25T19:46:55.291Z,83.11
2018-11-25T19:49:22.717Z,83.40
2018-11-25T19:51:50.142Z,84.25
2018-11-25T19:54:17.583Z,84.28
2018-11-25T19:56:45.012Z,83.97
2018-11-25T19:59:12.452Z,83.92
2018-11-25T20:01:39.875Z,84.05
2018-11-25T20:04:07.311Z,83.58
2018-11-25T20:06:34.734Z,83.13
2018-11-25T20:09:02.168Z,83.38
2018-11-25T20:11:29.666Z,83.28
2018-11-25T20:13:57.095Z,83.27
2018-11-25T20:16:30.079Z,82.89
2018-11-25T20:18:57.513Z,83.32
2018-11-25T20:21:30.349Z,82.64
2018-11-25T20:23:57.769Z,83.61
2018-11-25T20:26:25.207Z,83.02
2018-11-25T20:28:52.650Z,82.65
2018-11-25T20:31:20.091Z,82.87
2018-11-25T20:33:52.173Z,83.23
2018-11-25T20:36:17.220Z,82.78
2018-11-25T20:38:50.090Z,82.85
2018-11-25T20:41:17.520Z,82.98
2018-11-25T20:43:44.938Z,82.16
2018-11-25T20:46:17.777Z,82.65
2018-11-25T20:48:45.211Z,82.77
2018-11-25T20:51:12.622Z,83.28
2018-11-25T20:53:45.342Z,82.91
2018-11-25T20:56:12.861Z,82.03
2018-11-25T20:58:40.320Z,81.88
2018-11-25T21:01:08.163Z,82.73
2018-11-25T21:03:35.599Z,82.66
2018-11-25T21:06:03.019Z,82.19
2018-11-25T21:08:30.452Z,82.58
2018-11-25T21:10:57.924Z,82.57
2018-11-25T21:13:25.383Z,82.37
2018-11-25T21:15:52.817Z,82.89
2018-11-25T21:18:20.300Z,83.01
2018-11-25T21:20:51.346Z,83.08
2018-11-25T21:23:15.215Z,82.90
2018-11-25T21:25:42.641Z,83.00
2018-11-25T21:28:10.088Z,82.85
2018-11-25T21:30:37.511Z,82.81
2018-11-25T21:33:04.943Z,83.29
2018-11-25T21:35:32.368Z,83.53
2018-11-25T21:37:59.794Z,83.93
2018-11-25T21:40:27.224Z,84.13
2018-11-25T21:42:54.699Z,84.05
2018-11-25T22:02:23.082Z,84.48
2018-11-25T22:04:50.509Z,83.73
2018-11-25T22:07:17.994Z,83.75
2018-11-25T22:09:45.435Z,83.69
2018-11-25T22:12:12.898Z,83.69
2018-11-25T22:14:40.399Z,83.19
2018-11-25T22:17:07.819Z,82.53
2018-11-25T22:19:35.265Z,82.46
2018-11-25T22:22:02.721Z,82.62
2018-11-25T22:24:30.154Z,83.00
2018-11-25T22:26:57.576Z,82.36
2018-11-25T22:29:24.998Z,81.86
2018-11-25T22:31:52.417Z,81.91
2018-11-25T22:34:19.854Z,81.95
2018-11-25T22:36:47.276Z,81.99
2018-11-25T22:39:14.718Z,81.27
2018-11-25T22:41:42.179Z,81.49
2018-11-25T22:44:09.620Z,82.05
2018-11-25T22:46:37.774Z,81.26
2018-11-25T22:49:05.206Z,81.59
2018-11-25T22:51:32.630Z,81.75
2018-11-25T22:54:00.056Z,81.33
2018-11-25T22:56:27.495Z,80.90
2018-11-25T22:58:54.918Z,81.14
2018-11-25T23:01:22.357Z,81.58
2018-11-25T23:03:49.786Z,81.05
2018-11-25T23:06:17.478Z,81.05
2018-11-25T23:08:44.914Z,81.36
2018-11-25T23:11:12.338Z,81.63
2018-11-25T23:13:39.848Z,81.57
2018-11-25T23:16:07.266Z,80.90
2018-11-25T23:18:34.698Z,81.49
2018-11-25T23:21:02.135Z,81.83
2018-11-25T23:23:29.559Z,81.57
2018-11-25T23:25:56.993Z,81.35
2018-11-25T23:28:24.499Z,81.16
2018-11-25T23:30:51.945Z,81.04
2018-11-25T23:33:19.504Z,81.31
2018-11-25T23:35:46.929Z,82.29
2018-11-25T23:38:14.417Z,83.08
2018-11-25T23:40:41.855Z,83.03
2018-11-25T23:43:09.327Z,82.91
2018-11-25T23:45:36.765Z,82.81
2018-11-25T23:48:04.280Z,82.68
2018-11-25T23:50:31.711Z,82.93
2018-11-25T23:52:59.196Z,82.99
2018-11-25T23:55:26.636Z,82.34
2018-11-25T23:57:54.067Z,83.27
